createdAt,value
2022-11-19T00:00:20.839Z,86.80
2022-11-19T00:02:50.644Z,86.90
2022-11-19T00:05:20.224Z,86.70
2022-11-19T00:07:48.996Z,86.80
2022-11-19T00:10:17.905Z,86.70
2022-11-19T00:12:56.909Z,86.60
2022-11-19T00:15:25.348Z,86.80
2022-11-19T00:17:53.469Z,86.90
2022-11-19T00:20:23.450Z,86.40
2022-11-19T00:22:53.181Z,86.30
2022-11-19T00:25:22.001Z,86.20
2022-11-19T00:27:50.173Z,86.20
2022-11-19T00:30:45.954Z,86.20
2022-11-19T00:33:07.645Z,86.20
2022-11-19T00:35:37.132Z,85.90
2022-11-19T00:38:05.726Z,85.90
2022-11-19T00:40:34.292Z,86.10
2022-11-19T00:43:20.439Z,86.10
2022-11-19T00:45:49.587Z,85.90
2022-11-19T00:48:17.665Z,85.90
2022-11-19T00:50:47.648Z,86.80
2022-11-19T00:53:15.747Z,86.20
2022-11-19T00:55:43.857Z,86.40
2022-11-19T00:58:12.861Z,86.60
2022-11-19T01:00:41.225Z,86.40
2022-11-19T01:03:09.825Z,86.10
2022-11-19T01:05:37.908Z,85.90
2022-11-19T01:08:07.518Z,85.70
2022-11-19T01:10:36.469Z,85.50
2022-11-19T01:13:22.431Z,85.50
2022-11-19T01:15:51.384Z,85.60
2022-11-19T01:18:20.799Z,85.80
2022-11-19T01:20:49.089Z,85.70
2022-11-19T01:23:19.096Z,85.50
2022-11-19T01:25:47.484Z,85.40
2022-11-19T01:28:16.075Z,85.40
2022-11-19T01:30:45.146Z,85.30
2022-11-19T01:33:13.884Z,85.30
2022-11-19T01:35:42.122Z,85.60
2022-11-19T01:38:10.374Z,85.50
2022-11-19T01:40:46.762Z,85.60
2022-11-19T01:43:15.218Z,85.90
2022-11-19T01:45:48.771Z,85.90
2022-11-19T01:48:23.325Z,85.90
2022-11-19T01:50:56.226Z,85.50
2022-11-19T01:53:27.767Z,85.30
2022-11-19T01:56:04.217Z,85.50
2022-11-19T01:58:35.040Z,85.80
2022-11-19T02:01:03.829Z,86.00
2022-11-19T02:03:33.572Z,85.90
2022-11-19T02:06:03.587Z,86.20
2022-11-19T02:08:39.158Z,86.30
2022-11-19T02:11:30.773Z,86.00
2022-11-19T02:18:06.888Z,85.70
2022-11-19T02:20:54.136Z,86.00
2022-11-19T02:23:58.675Z,86.30
2022-11-19T02:27:11.079Z,86.40
2022-11-19T02:30:04.289Z,86.30
2022-11-19T02:32:36.235Z,86.30
2022-11-19T02:35:12.570Z,86.30
2022-11-19T02:37:46.703Z,86.30
2022-11-19T02:40:21.993Z,86.30
2022-11-19T02:42:58.222Z,86.50
2022-11-19T02:45:32.743Z,86.70
2022-11-19T02:48:05.959Z,86.70
2022-11-19T02:50:38.034Z,86.70
2022-11-19T02:53:07.130Z,86.70
2022-11-19T02:55:37.754Z,86.90
2022-11-19T02:58:11.827Z,86.90
2022-11-19T03:01:03.963Z,86.80
2022-11-19T03:03:51.768Z,86.90
2022-11-19T03:06:24.826Z,86.90
2022-11-19T03:08:53.594Z,86.90
2022-11-19T03:11:24.441Z,87.10
2022-11-19T03:14:14.775Z,87.40
2022-11-19T03:16:54.454Z,87.40
2022-11-19T03:19:32.202Z,87.30
2022-11-19T03:22:05.674Z,87.30
2022-11-19T03:24:37.399Z,87.20
2022-11-19T03:27:11.196Z,87.10
2022-11-19T03:29:44.507Z,86.90
2022-11-19T03:32:18.642Z,86.90
2022-11-19T03:34:50.043Z,86.90
2022-11-19T03:37:20.757Z,86.90
2022-11-19T03:39:50.997Z,87.00
2022-11-19T03:42:21.162Z,87.10
2022-11-19T03:44:51.840Z,87.10
2022-11-19T03:47:27.965Z,86.90
2022-11-19T03:50:00.899Z,86.90
2022-11-19T03:52:29.646Z,87.10
2022-11-19T03:54:58.471Z,87.30
2022-11-19T03:57:28.450Z,87.30
2022-11-19T03:59:56.551Z,87.40
2022-11-19T04:02:26.166Z,87.30
2022-11-19T04:04:54.781Z,87.30
2022-11-19T04:07:25.340Z,87.30
2022-11-19T04:09:54.018Z,87.30
2022-11-19T04:12:24.530Z,87.10
2022-11-19T04:14:54.063Z,87.10
2022-11-19T04:17:22.679Z,87.30
2022-11-19T04:19:52.650Z,87.30
2022-11-19T04:22:20.732Z,87.60
2022-11-19T04:24:48.888Z,87.60
2022-11-19T04:27:17.516Z,87.80
2022-11-19T04:29:46.101Z,87.60
2022-11-19T04:32:14.199Z,87.60
2022-11-19T04:34:42.854Z,87.40
2022-11-19T04:37:12.792Z,87.50
2022-11-19T04:39:41.393Z,87.60
2022-11-19T04:42:09.786Z,88.50
2022-11-19T04:44:38.376Z,87.70
2022-11-19T04:47:06.524Z,87.50
2022-11-19T04:49:35.096Z,87.30
2022-11-19T04:52:03.636Z,87.20
2022-11-19T04:54:33.028Z,87.30
2022-11-19T04:57:02.715Z,87.60
2022-11-19T04:59:30.717Z,87.60
2022-11-19T05:01:59.319Z,87.30
2022-11-19T05:04:27.507Z,87.50
2022-11-19T05:06:56.135Z,87.40
2022-11-19T05:09:24.724Z,87.70
2022-11-19T05:11:54.730Z,87.70
2022-11-19T05:14:25.955Z,87.50
2022-11-19T05:16:57.493Z,87.50
2022-11-19T05:19:25.611Z,87.80
2022-11-19T05:21:53.689Z,87.80
2022-11-19T05:24:22.355Z,87.70
2022-11-19T05:26:50.423Z,87.90
2022-11-19T05:29:20.605Z,88.00
2022-11-19T05:31:48.901Z,87.80
2022-11-19T05:34:16.977Z,87.60
2022-11-19T05:36:45.530Z,87.60
2022-11-19T05:39:20.273Z,87.60
2022-11-19T05:41:49.879Z,87.80
2022-11-19T05:44:19.977Z,87.90
2022-11-19T05:46:48.065Z,87.80
2022-11-19T05:49:16.118Z,87.40
2022-11-19T05:51:44.658Z,87.30
2022-11-19T05:54:12.883Z,87.30
2022-11-19T05:56:41.552Z,87.40
2022-11-19T05:59:09.683Z,87.50
2022-11-19T06:01:39.635Z,87.30
2022-11-19T06:04:07.765Z,87.40
2022-11-19T06:06:36.346Z,87.30
2022-11-19T06:09:05.386Z,87.20
2022-11-19T06:11:51.307Z,88.30
2022-11-19T06:14:22.544Z,87.40
2022-11-19T06:16:53.442Z,87.30
2022-11-19T06:19:22.242Z,87.30
2022-11-19T06:21:50.764Z,87.50
2022-11-19T06:24:19.822Z,87.80
2022-11-19T06:26:48.538Z,87.60
2022-11-19T06:29:17.633Z,87.60
2022-11-19T06:31:46.937Z,87.80
2022-11-19T06:34:17.049Z,87.70
2022-11-19T06:36:50.298Z,87.60
2022-11-19T06:39:19.586Z,87.60
2022-11-19T06:41:48.714Z,87.50
2022-11-19T06:44:17.448Z,87.60
2022-11-19T06:46:45.712Z,87.80
2022-11-19T06:49:19.690Z,87.80
2022-11-19T06:51:49.697Z,87.80
2022-11-19T06:54:18.272Z,87.80
2022-11-19T06:56:46.458Z,87.80
2022-11-19T06:59:15.195Z,87.80
2022-11-19T07:01:43.372Z,88.00
2022-11-19T07:04:11.964Z,88.00
2022-11-19T07:06:40.532Z,88.00
2022-11-19T07:09:10.017Z,88.00
2022-11-19T07:11:38.627Z,87.90
2022-11-19T07:14:06.740Z,87.70
2022-11-19T07:16:36.721Z,87.50
2022-11-19T07:19:06.889Z,87.30
2022-11-19T07:21:35.786Z,87.10
2022-11-19T07:24:05.906Z,86.90
2022-11-19T07:26:36.985Z,87.20
2022-11-19T07:29:07.216Z,87.30
2022-11-19T07:31:35.859Z,87.30
2022-11-19T07:34:07.553Z,87.30
2022-11-19T07:36:36.158Z,87.20
2022-11-19T07:39:04.840Z,87.10
2022-11-19T07:41:50.414Z,87.00
2022-11-19T07:44:19.981Z,87.00
2022-11-19T07:46:48.109Z,86.90
2022-11-19T07:49:16.970Z,86.80
2022-11-19T07:51:45.292Z,86.70
2022-11-19T07:54:14.262Z,86.80
2022-11-19T07:56:43.026Z,86.70
2022-11-19T07:59:11.280Z,86.50
2022-11-19T08:01:41.350Z,86.70
2022-11-19T08:04:09.860Z,86.80
2022-11-19T08:06:38.814Z,86.90
2022-11-19T08:09:07.393Z,86.80
2022-11-19T08:11:36.029Z,86.90
2022-11-19T08:14:04.159Z,86.90
2022-11-19T08:16:51.631Z,87.10
2022-11-19T08:19:21.194Z,87.20
2022-11-19T08:21:50.095Z,87.10
2022-11-19T08:24:21.408Z,87.10
2022-11-19T08:26:51.120Z,87.10
2022-11-19T08:29:24.212Z,87.20
2022-11-19T08:31:52.832Z,87.30
2022-11-19T08:34:23.469Z,87.30
2022-11-19T08:36:51.648Z,87.30
2022-11-19T08:39:20.248Z,87.20
2022-11-19T08:42:05.589Z,87.30
2022-11-19T08:44:33.852Z,87.50
2022-11-19T08:47:02.027Z,87.30
2022-11-19T08:49:32.105Z,87.10
2022-11-19T08:52:00.439Z,87.10
2022-11-19T08:54:29.054Z,87.10
2022-11-19T08:56:57.240Z,86.70
2022-11-19T08:59:26.017Z,86.60
2022-11-19T09:01:54.141Z,86.70
2022-11-19T09:04:23.032Z,86.90
2022-11-19T09:06:52.622Z,87.80
2022-11-19T09:09:21.502Z,86.90
2022-11-19T09:11:50.142Z,86.90
2022-11-19T09:14:18.900Z,86.80
2022-11-19T09:16:47.891Z,86.60
2022-11-19T09:19:16.488Z,86.50
2022-11-19T09:21:44.622Z,86.70
2022-11-19T09:24:14.110Z,86.70
2022-11-19T09:26:42.705Z,86.80
2022-11-19T09:29:10.866Z,86.90
2022-11-19T09:31:38.979Z,87.00
2022-11-19T09:34:07.631Z,87.10
2022-11-19T09:36:36.200Z,88.00
2022-11-19T09:39:04.964Z,87.20
2022-11-19T09:41:58.207Z,88.20
2022-11-19T09:44:53.628Z,87.00
2022-11-19T09:47:32.517Z,87.10
2022-11-19T09:50:07.415Z,87.10
2022-11-19T09:52:43.784Z,87.10
2022-11-19T09:55:19.377Z,87.10
2022-11-19T09:57:51.726Z,87.10
2022-11-19T10:00:23.559Z,87.10
2022-11-19T10:02:51.853Z,86.70
2022-11-19T10:05:31.222Z,86.50
2022-11-19T10:08:13.533Z,86.60
2022-11-19T10:10:43.822Z,86.70
2022-11-19T10:13:29.725Z,86.70
2022-11-19T10:16:13.758Z,86.60
2022-11-19T10:18:49.094Z,86.50
2022-11-19T10:21:26.694Z,86.60
2022-11-19T10:24:01.511Z,86.90
2022-11-19T10:26:36.828Z,86.90
2022-11-19T10:29:16.426Z,86.70
2022-11-19T10:31:47.818Z,86.40
2022-11-19T10:34:23.231Z,86.50
2022-11-19T10:36:57.579Z,86.40
2022-11-19T10:39:32.905Z,86.50
2022-11-19T10:42:10.011Z,86.60
2022-11-19T10:44:44.205Z,87.70
2022-11-19T10:47:20.322Z,86.80
2022-11-19T10:49:53.956Z,86.70
2022-11-19T10:52:28.915Z,86.60
2022-11-19T10:55:01.404Z,86.70
2022-11-19T10:57:34.521Z,86.90
2022-11-19T11:00:04.086Z,86.80
2022-11-19T11:02:38.773Z,86.70
2022-11-19T11:05:11.939Z,86.90
2022-11-19T11:07:55.020Z,86.70
2022-11-19T11:10:38.418Z,86.50
2022-11-19T11:13:49.367Z,86.30
2022-11-19T11:16:21.642Z,86.50
2022-11-19T11:18:51.284Z,86.70
2022-11-19T11:21:36.135Z,86.70
2022-11-19T11:24:06.310Z,86.60
2022-11-19T11:26:37.971Z,86.90
2022-11-19T11:29:25.221Z,87.10
2022-11-19T11:31:54.826Z,87.20
2022-11-19T11:34:44.261Z,87.10
2022-11-19T11:37:13.100Z,86.90
2022-11-19T11:39:44.303Z,86.90
2022-11-19T11:42:18.831Z,86.70
2022-11-19T11:44:53.186Z,86.70
2022-11-19T11:47:26.123Z,86.70
2022-11-19T11:50:06.018Z,86.70
2022-11-19T11:52:39.184Z,86.70
2022-11-19T11:55:09.403Z,86.70
2022-11-19T11:57:51.168Z,86.80
2022-11-19T12:00:38.227Z,86.70
2022-11-19T12:03:11.139Z,86.30
2022-11-19T12:06:00.956Z,86.30
2022-11-19T12:08:44.702Z,86.30
2022-11-19T12:11:19.434Z,86.60
2022-11-19T12:14:09.516Z,86.60
2022-11-19T12:16:54.173Z,86.50
2022-11-19T12:19:49.632Z,86.50
2022-11-19T12:22:29.424Z,86.40
2022-11-19T12:25:21.124Z,86.50
2022-11-19T12:28:05.306Z,86.70
2022-11-19T12:30:43.727Z,86.70
2022-11-19T12:33:28.642Z,86.50
2022-11-19T12:36:08.264Z,86.40
2022-11-19T12:38:47.836Z,86.30
2022-11-19T12:41:35.620Z,86.70
2022-11-19T12:44:13.646Z,86.70
2022-11-19T12:46:52.039Z,86.70
2022-11-19T12:49:45.566Z,86.70
2022-11-19T12:52:37.087Z,86.60
2022-11-19T12:55:13.736Z,86.30
2022-11-19T12:57:48.913Z,86.40
2022-11-19T13:00:21.320Z,87.10
2022-11-19T13:02:58.187Z,86.20
2022-11-19T13:05:44.197Z,86.50
2022-11-19T13:08:20.598Z,86.70
2022-11-19T13:10:51.505Z,86.70
2022-11-19T13:13:26.855Z,86.50
2022-11-19T13:16:00.479Z,86.40
2022-11-19T13:18:33.336Z,86.50
2022-11-19T13:21:04.883Z,86.50
2022-11-19T13:23:40.957Z,86.40
2022-11-19T13:26:13.668Z,86.40
2022-11-19T13:28:46.312Z,86.40
2022-11-19T13:31:23.349Z,86.30
2022-11-19T13:33:59.739Z,86.40
2022-11-19T13:36:35.138Z,86.50
2022-11-19T13:39:13.886Z,86.60
2022-11-19T13:41:59.522Z,86.60
2022-11-19T13:44:41.537Z,86.50
2022-11-19T13:47:14.012Z,86.50
2022-11-19T13:49:45.910Z,86.50
2022-11-19T13:52:24.702Z,86.50
2022-11-19T13:54:55.955Z,86.60
2022-11-19T13:57:32.714Z,86.70
2022-11-19T14:00:05.409Z,86.70
2022-11-19T14:03:17.486Z,86.70
2022-11-19T14:06:20.438Z,86.40
2022-11-19T14:09:03.800Z,86.50
2022-11-19T14:12:08.622Z,86.70
2022-11-19T14:15:17.923Z,86.50
2022-11-19T14:18:11.175Z,86.30
2022-11-19T14:20:59.418Z,86.30
2022-11-19T14:24:04.219Z,86.30
2022-11-19T14:27:17.751Z,86.50
2022-11-19T14:29:58.791Z,86.50
2022-11-19T14:32:34.882Z,86.50
2022-11-19T14:35:32.875Z,86.70
2022-11-19T14:38:34.801Z,86.80
2022-11-19T14:41:19.564Z,86.90
2022-11-19T14:44:19.727Z,86.90
2022-11-19T14:46:49.795Z,86.60
2022-11-19T14:49:31.136Z,86.50
2022-11-19T14:52:02.518Z,86.50
2022-11-19T14:54:34.939Z,86.50
2022-11-19T14:57:16.155Z,86.50
2022-11-19T14:59:51.097Z,86.50
2022-11-19T15:02:30.507Z,86.50
2022-11-19T15:05:04.798Z,86.70
2022-11-19T15:07:43.267Z,86.80
2022-11-19T15:10:31.693Z,86.70
2022-11-19T15:13:27.565Z,86.50
2022-11-19T15:16:10.165Z,86.50
2022-11-19T15:18:57.156Z,86.60
2022-11-19T15:22:01.199Z,86.50
2022-11-19T15:24:44.919Z,86.50
2022-11-19T15:27:21.660Z,86.50
2022-11-19T15:30:08.784Z,86.70
2022-11-19T15:33:02.808Z,86.60
2022-11-19T15:35:58.059Z,86.70
2022-11-19T15:38:32.346Z,86.60
2022-11-19T15:41:03.815Z,86.70
2022-11-19T15:43:35.707Z,86.70
2022-11-19T15:46:08.656Z,86.90
2022-11-19T15:48:44.035Z,86.70
2022-11-19T15:51:16.101Z,86.70
2022-11-19T15:53:59.915Z,86.80
2022-11-19T15:56:30.634Z,86.70
2022-11-19T15:58:58.952Z,86.70
2022-11-19T16:01:27.789Z,86.60
2022-11-19T16:03:57.652Z,86.70
2022-11-19T16:06:29.576Z,86.80
2022-11-19T16:09:01.171Z,86.90
2022-11-19T16:11:49.118Z,86.90
2022-11-19T16:14:40.027Z,87.10
2022-11-19T16:17:41.639Z,87.10
2022-11-19T16:20:22.436Z,87.20
2022-11-19T16:22:59.635Z,87.10
2022-11-19T16:25:33.488Z,87.00
2022-11-19T16:28:05.419Z,87.10
2022-11-19T16:30:46.699Z,87.20
2022-11-19T16:33:19.165Z,87.20
2022-11-19T16:35:52.872Z,87.20
2022-11-19T16:38:28.312Z,87.30
2022-11-19T16:41:14.603Z,87.20
2022-11-19T16:43:44.190Z,87.20
2022-11-19T16:46:15.628Z,87.30
2022-11-19T16:49:02.513Z,87.20
2022-11-19T16:51:40.852Z,87.20
2022-11-19T16:54:11.513Z,87.10
2022-11-19T16:56:43.383Z,87.10
2022-11-19T16:59:20.058Z,87.10
2022-11-19T17:01:57.542Z,87.30
2022-11-19T17:04:29.112Z,87.50
2022-11-19T17:07:00.190Z,87.60
2022-11-19T17:09:37.533Z,87.40
2022-11-19T17:12:23.771Z,87.30
2022-11-19T17:14:55.894Z,87.30
2022-11-19T17:17:42.560Z,87.20
2022-11-19T17:21:02.134Z,87.00
2022-11-19T17:23:33.769Z,86.80
2022-11-19T17:26:03.596Z,86.90
2022-11-19T17:28:41.320Z,86.90
2022-11-19T17:31:16.964Z,86.80
2022-11-19T17:33:55.054Z,86.70
2022-11-19T17:36:26.113Z,86.90
2022-11-19T17:38:56.100Z,86.90
2022-11-19T17:41:43.739Z,86.80
2022-11-19T17:44:35.101Z,86.90
2022-11-19T17:47:07.406Z,87.00
2022-11-19T17:49:46.806Z,87.10
2022-11-19T17:52:22.909Z,88.20
2022-11-19T17:54:53.766Z,87.10
2022-11-19T17:57:22.363Z,87.20
2022-11-19T17:59:50.960Z,87.20
2022-11-19T18:02:21.021Z,87.10
2022-11-19T18:04:50.603Z,87.10
2022-11-19T18:07:19.219Z,87.00
2022-11-19T18:09:47.308Z,88.00
2022-11-19T18:12:19.245Z,87.30
2022-11-19T18:14:48.277Z,87.30
2022-11-19T18:17:17.514Z,87.30
2022-11-19T18:19:46.093Z,87.30
2022-11-19T18:22:19.156Z,87.10
2022-11-19T18:24:48.842Z,87.20
2022-11-19T18:27:18.791Z,87.20
2022-11-19T18:29:46.845Z,87.20
2022-11-19T18:32:17.330Z,87.30
2022-11-19T18:34:46.050Z,87.20
2022-11-19T18:37:14.772Z,87.20
2022-11-19T18:39:42.826Z,87.30
2022-11-19T18:42:12.761Z,87.10
2022-11-19T18:44:43.837Z,87.10
2022-11-19T18:47:14.262Z,87.10
2022-11-19T18:49:43.235Z,87.10
2022-11-19T18:52:14.988Z,87.10
2022-11-19T18:54:43.657Z,87.30
2022-11-19T18:57:13.355Z,87.30
2022-11-19T18:59:43.379Z,87.10
2022-11-19T19:02:12.726Z,87.30
2022-11-19T19:04:40.950Z,87.30
2022-11-19T19:07:09.605Z,87.30
2022-11-19T19:09:37.750Z,87.20
2022-11-19T19:12:18.092Z,87.10
2022-11-19T19:14:49.540Z,87.10
2022-11-19T19:17:17.665Z,87.10
2022-11-19T19:19:46.704Z,87.10
2022-11-19T19:22:15.193Z,87.30
2022-11-19T19:24:43.805Z,87.10
2022-11-19T19:27:12.497Z,87.10
2022-11-19T19:29:41.201Z,87.10
2022-11-19T19:32:10.684Z,87.20
2022-11-19T19:34:39.274Z,87.10
2022-11-19T19:37:07.381Z,87.10
2022-11-19T19:39:35.967Z,87.10
2022-11-19T19:42:04.090Z,87.20
2022-11-19T19:44:32.245Z,87.20
2022-11-19T19:47:07.085Z,87.20
2022-11-19T19:49:39.023Z,87.20
2022-11-19T19:52:07.423Z,87.30
2022-11-19T19:54:35.551Z,87.20
2022-11-19T19:57:04.492Z,87.10
2022-11-19T19:59:32.542Z,87.00
2022-11-19T20:02:01.150Z,87.00
2022-11-19T20:04:29.336Z,87.00
2022-11-19T20:06:59.379Z,86.80
2022-11-19T20:09:27.754Z,86.70
2022-11-19T20:11:56.454Z,86.70
2022-11-19T20:14:24.532Z,86.70
2022-11-19T20:16:53.213Z,86.90
2022-11-19T20:19:21.467Z,86.90
2022-11-19T20:21:49.838Z,86.90
2022-11-19T20:24:20.628Z,87.10
2022-11-19T20:26:48.775Z,87.30
2022-11-19T20:29:18.391Z,87.40
2022-11-19T20:31:48.813Z,87.40
2022-11-19T20:34:17.852Z,87.30
2022-11-19T20:36:46.600Z,87.20
2022-11-19T20:39:14.716Z,87.10
2022-11-19T20:42:01.966Z,87.00
2022-11-19T20:44:30.464Z,86.90
2022-11-19T20:47:00.236Z,86.90
2022-11-19T20:49:29.705Z,86.80
2022-11-19T20:51:58.314Z,86.80
2022-11-19T20:54:27.751Z,86.90
2022-11-19T20:56:58.568Z,87.10
2022-11-19T20:59:29.118Z,86.90
2022-11-19T21:01:58.217Z,87.00
2022-11-19T21:04:28.504Z,87.10
2022-11-19T21:06:57.206Z,87.10
2022-11-19T21:09:25.695Z,87.00
2022-11-19T21:11:54.517Z,87.10
2022-11-19T21:14:24.068Z,87.20
2022-11-19T21:16:52.340Z,87.40
2022-11-19T21:19:20.971Z,87.30
2022-11-19T21:21:49.400Z,87.00
2022-11-19T21:24:17.962Z,86.90
2022-11-19T21:26:46.612Z,86.90
2022-11-19T21:29:14.759Z,87.10
2022-11-19T21:31:45.740Z,87.10
2022-11-19T21:34:15.771Z,86.90
2022-11-19T21:36:45.094Z,86.90
2022-11-19T21:39:16.431Z,87.10
2022-11-19T21:41:45.693Z,87.30
2022-11-19T21:44:18.371Z,87.30
2022-11-19T21:46:51.470Z,87.30
2022-11-19T21:49:19.878Z,87.30
2022-11-19T21:51:49.492Z,87.20
2022-11-19T21:54:17.642Z,87.30
2022-11-19T21:56:46.433Z,87.20
2022-11-19T21:59:14.590Z,87.10
2022-11-19T22:01:43.164Z,87.10
2022-11-19T22:04:16.007Z,87.10
2022-11-19T22:06:44.144Z,87.20
2022-11-19T22:09:12.735Z,87.20
2022-11-19T22:11:40.852Z,87.30
2022-11-19T22:14:10.696Z,87.30
2022-11-19T22:16:41.041Z,87.30
2022-11-19T22:19:09.612Z,87.40
2022-11-19T22:21:39.456Z,87.40
2022-11-19T22:24:08.505Z,87.20
2022-11-19T22:26:36.670Z,87.10
2022-11-19T22:29:04.834Z,87.30
2022-11-19T22:31:33.584Z,87.30
2022-11-19T22:34:01.725Z,87.30
2022-11-19T22:36:34.078Z,87.30
2022-11-19T22:39:03.793Z,87.40
2022-11-19T22:41:32.484Z,87.30
2022-11-19T22:44:01.056Z,87.40
2022-11-19T22:46:29.853Z,87.20
2022-11-19T22:48:58.543Z,87.20
2022-11-19T22:51:27.201Z,87.20
2022-11-19T22:53:56.834Z,87.10
2022-11-19T22:56:28.850Z,87.10
2022-11-19T22:58:58.106Z,87.00
2022-11-19T23:01:28.224Z,87.10
2022-11-19T23:03:57.519Z,87.20
2022-11-19T23:06:26.076Z,87.20
2022-11-19T23:08:54.978Z,87.30
2022-11-19T23:11:38.435Z,87.40
2022-11-19T23:14:10.972Z,87.30
2022-11-19T23:16:40.025Z,87.30
2022-11-19T23:19:09.035Z,87.30
2022-11-19T23:21:37.604Z,87.50
2022-11-19T23:24:06.420Z,87.30
2022-11-19T23:26:35.401Z,87.20
2022-11-19T23:29:04.079Z,87.10
2022-11-19T23:31:35.130Z,87.10
2022-11-19T23:34:03.280Z,87.10
2022-11-19T23:36:33.384Z,87.10
2022-11-19T23:39:02.229Z,87.30
2022-11-19T23:41:33.314Z,87.20
2022-11-19T23:44:01.689Z,87.40
2022-11-19T23:46:32.012Z,88.40
2022-11-19T23:49:02.963Z,87.40
2022-11-19T23:51:32.979Z,87.20
2022-11-19T23:54:01.138Z,87.10
2022-11-19T23:56:31.628Z,87.10
2022-11-19T23:59:02.445Z,86.90
